Time;durP1;ratioP1;P1;durP2;ratioP2;P2;SDS_P1;SDS_P2;PMS_P1;PMS_P2;Temp;Humidity;BMP_temperature;BMP_pressure;BME280_temperature;BME280_humidity;BME280_pressure;Samples;Min_cycle;Max_cycle;Signal;HPM_P1;HPM_P2
2021/10/28 00:14:17;;;;;;;24.02;14.57;;;10.10;99.90;;;;;;5033942;28;20040;-76
2021/10/28 00:16:44;;;;;;;18.95;14.88;;;10.00;99.90;;;;;;5033571;28;20049;-73
2021/10/28 00:19:09;;;;;;;22.85;14.50;;;10.10;99.90;;;;;;5032893;28;20108;-74
2021/10/28 00:21:37;;;;;;;18.35;14.82;;;10.00;99.90;;;;;;5033410;28;20621;-75
2021/10/28 00:24:05;;;;;;;18.98;13.85;;;10.00;99.90;;;;;;5033932;28;20405;-75
2021/10/28 00:26:33;;;;;;;24.95;14.45;;;10.00;99.90;;;;;;5032793;28;20100;-76
2021/10/28 00:29:05;;;;;;;18.60;14.40;;;10.00;99.90;;;;;;5033438;28;20505;-76
2021/10/28 00:31:33;;;;;;;21.42;14.38;;;9.90;99.90;;;;;;5032592;28;20022;-74
2021/10/28 00:33:59;;;;;;;22.88;14.18;;;9.90;99.90;;;;;;5033050;28;20073;-76
2021/10/28 00:36:26;;;;;;;20.98;14.35;;;9.90;99.90;;;;;;5033447;28;20027;-76
2021/10/28 00:38:52;;;;;;;17.90;14.05;;;9.90;99.90;;;;;;5032629;28;20632;-75
2021/10/28 00:41:19;;;;;;;19.17;13.60;;;9.80;99.90;;;;;;5033571;28;20452;-75
2021/10/28 00:43:48;;;;;;;21.80;14.57;;;9.40;99.90;;;;;;5032281;28;20026;-75
2021/10/28 00:46:15;;;;;;;19.75;14.23;;;9.80;99.90;;;;;;5032712;28;20029;-75
2021/10/28 00:48:41;;;;;;;18.95;14.43;;;9.80;99.90;;;;;;5032692;28;20358;-75
2021/10/28 00:51:07;;;;;;;21.90;14.30;;;9.70;99.90;;;;;;5033007;28;20108;-75
2021/10/28 00:53:34;;;;;;;25.15;14.52;;;9.80;99.90;;;;;;5032198;28;20455;-76
2021/10/28 00:56:03;;;;;;;21.95;15.27;;;9.70;99.90;;;;;;5033037;28;20026;-74
2021/10/28 00:58:32;;;;;;;23.88;14.63;;;9.70;99.90;;;;;;5032756;28;20401;-75
2021/10/28 01:00:59;;;;;;;22.38;13.65;;;9.70;99.90;;;;;;5032194;28;20026;-76
2021/10/28 01:03:25;;;;;;;21.08;14.23;;;9.70;99.90;;;;;;5032876;28;20120;-76
2021/10/28 01:05:50;;;;;;;18.00;12.98;;;9.70;99.90;;;;;;5033081;28;20490;-76
2021/10/28 01:08:16;;;;;;;22.35;13.25;;;9.60;99.90;;;;;;5032491;28;20086;-76
2021/10/28 01:10:44;;;;;;;20.52;14.68;;;9.70;99.90;;;;;;5032723;28;20497;-76
2021/10/28 01:13:10;;;;;;;22.20;14.18;;;9.60;99.90;;;;;;5032841;28;20379;-76
2021/10/28 01:15:36;;;;;;;23.63;13.88;;;9.60;99.90;;;;;;5031944;28;20025;-76
2021/10/28 01:18:07;;;;;;;21.52;13.07;;;9.60;99.90;;;;;;5032316;28;20025;-76
2021/10/28 01:20:33;;;;;;;17.17;14.40;;;9.60;99.90;;;;;;5032608;28;20022;-76
2021/10/28 01:22:58;;;;;;;19.88;14.45;;;9.60;99.90;;;;;;5031864;28;20454;-76
2021/10/28 01:25:24;;;;;;;20.52;13.30;;;9.50;99.90;;;;;;5032012;28;20038;-76
2021/10/28 01:27:50;;;;;;;20.50;14.27;;;9.50;99.90;;;;;;5030695;28;20029;-76
2021/10/28 01:30:15;;;;;;;18.35;14.05;;;9.60;99.90;;;;;;5019395;28;20120;-75
2021/10/28 01:32:41;;;;;;;21.52;13.00;;;9.60;99.90;;;;;;5031398;28;20444;-75
2021/10/28 01:35:07;;;;;;;18.60;13.73;;;9.50;99.90;;;;;;5031733;28;20618;-75
2021/10/28 01:37:33;;;;;;;21.52;14.43;;;9.50;99.90;;;;;;5032133;28;20037;-75
2021/10/28 01:39:58;;;;;;;28.67;16.27;;;9.40;99.90;;;;;;5032376;28;20100;-75
2021/10/28 01:42:24;;;;;;;21.17;14.00;;;9.40;99.90;;;;;;5031691;28;20119;-76
2021/10/28 01:44:49;;;;;;;16.90;13.52;;;9.40;99.90;;;;;;5032142;28;20052;-76
2021/10/28 01:47:16;;;;;;;22.58;14.07;;;9.40;99.90;;;;;;5032370;28;20386;-76
2021/10/28 01:49:42;;;;;;;21.58;13.77;;;9.40;99.90;;;;;;5031880;28;20025;-75
2021/10/28 01:52:12;;;;;;;18.30;13.35;;;9.40;99.90;;;;;;5032419;28;20022;-75
2021/10/28 01:54:38;;;;;;;21.30;14.45;;;9.30;99.90;;;;;;5032457;28;20083;-74
2021/10/28 01:57:04;;;;;;;22.23;14.60;;;9.30;99.90;;;;;;5029071;28;20022;-75
2021/10/28 01:59:29;;;;;;;21.23;14.40;;;9.30;99.90;;;;;;5020901;28;20385;-75
2021/10/28 02:01:55;;;;;;;20.02;13.40;;;9.30;99.90;;;;;;5032092;28;20086;-75
2021/10/28 02:04:21;;;;;;;22.75;14.38;;;9.30;99.90;;;;;;5031920;28;20418;-75
2021/10/28 02:06:46;;;;;;;23.88;14.40;;;9.20;99.90;;;;;;5033031;28;20108;-74
2021/10/28 02:09:12;;;;;;;21.95;14.05;;;9.20;99.90;;;;;;5032053;28;20028;-75
2021/10/28 02:11:37;;;;;;;21.73;14.10;;;9.20;99.90;;;;;;5031360;28;20052;-76
2021/10/28 02:14:03;;;;;;;25.27;14.60;;;9.20;99.90;;;;;;5031707;28;20037;-76
2021/10/28 02:16:33;;;;;;;22.35;15.75;;;9.20;99.90;;;;;;5031687;28;20473;-75
2021/10/28 02:19:00;;;;;;;20.30;14.30;;;9.20;99.90;;;;;;5030944;28;20495;-75
2021/10/28 02:21:27;;;;;;;20.38;13.65;;;9.20;99.90;;;;;;5031723;28;20030;-75
2021/10/28 02:23:53;;;;;;;21.25;13.02;;;9.10;99.90;;;;;;5032200;28;20040;-74
2021/10/28 02:26:19;;;;;;;26.55;14.93;;;9.10;99.90;;;;;;5031112;28;20028;-75
2021/10/28 02:28:45;;;;;;;21.77;13.75;;;9.10;99.90;;;;;;5031804;28;20108;-76
2021/10/28 02:31:11;;;;;;;27.23;14.63;;;9.10;99.90;;;;;;5030788;28;20056;-74
2021/10/28 02:33:37;;;;;;;22.80;13.50;;;9.00;99.90;;;;;;5030956;28;20455;-76
2021/10/28 02:36:04;;;;;;;22.17;13.48;;;9.10;99.90;;;;;;5031394;28;20046;-74
2021/10/28 02:38:29;;;;;;;20.48;13.20;;;9.00;99.90;;;;;;5031047;28;20116;-74
2021/10/28 02:40:55;;;;;;;21.02;13.52;;;9.10;99.90;;;;;;5032065;28;20053;-74
2021/10/28 02:43:21;;;;;;;19.08;13.05;;;9.00;99.90;;;;;;5031361;28;20024;-75
2021/10/28 02:45:47;;;;;;;22.42;13.23;;;9.00;99.90;;;;;;5034776;28;20326;-75
2021/10/28 02:48:13;;;;;;;23.67;13.43;;;9.00;99.90;;;;;;5035384;28;20021;-75
2021/10/28 02:50:38;;;;;;;19.10;12.60;;;9.00;99.90;;;;;;5035763;28;20022;-74
2021/10/28 02:53:04;;;;;;;25.05;13.80;;;8.90;99.90;;;;;;5034941;28;20029;-76
2021/10/28 02:55:29;;;;;;;19.30;12.88;;;8.90;99.90;;;;;;5035309;28;20079;-76
2021/10/28 02:57:55;;;;;;;21.27;13.38;;;8.90;99.90;;;;;;5035534;28;20390;-76
2021/10/28 03:00:20;;;;;;;18.50;13.65;;;8.90;99.90;;;;;;5034303;28;20104;-75
2021/10/28 03:02:46;;;;;;;18.88;13.60;;;9.90;99.90;;;;;;5035231;28;20021;-75
2021/10/28 03:05:12;;;;;;;20.13;12.52;;;8.80;99.90;;;;;;5035162;28;20083;-75
2021/10/28 03:07:38;;;;;;;22.33;13.38;;;8.90;99.90;;;;;;5034165;28;20018;-75
2021/10/28 03:10:07;;;;;;;21.92;12.98;;;8.90;99.90;;;;;;5034832;28;20032;-75
2021/10/28 03:12:34;;;;;;;20.05;13.70;;;8.80;99.90;;;;;;5034588;28;20022;-75
2021/10/28 03:15:03;;;;;;;19.10;14.13;;;8.90;99.90;;;;;;5034120;28;20033;-76
2021/10/28 03:17:36;;;;;;;19.38;12.48;;;8.80;99.90;;;;;;5032399;28;20036;-76
2021/10/28 03:28:02;;;;;;;19.20;12.38;;;8.80;99.90;;;;;;5034695;28;20079;-76
2021/10/28 03:30:28;;;;;;;20.58;12.50;;;8.80;99.90;;;;;;5034463;28;20033;-76
2021/10/28 03:32:54;;;;;;;15.30;12.05;;;8.80;99.90;;;;;;5034458;28;20413;-75
2021/10/28 03:35:20;;;;;;;19.33;13.48;;;8.70;99.90;;;;;;5033920;28;20036;-74
2021/10/28 03:37:52;;;;;;;20.50;12.45;;;8.70;99.90;;;;;;5034556;28;20025;-75
2021/10/28 03:48:32;;;;;;;17.48;12.82;;;8.70;99.90;;;;;;5033803;28;20519;-75
2021/10/28 04:21:01;;;;;;;20.10;12.43;;;8.50;99.90;;;;;;4969780;28;20489;-75
2021/10/28 04:29:02;;;;;;;14.30;11.10;;;8.40;99.90;;;;;;5033392;28;20107;-75
2021/10/28 04:31:35;;;;;;;20.55;12.23;;;8.40;99.90;;;;;;5032564;28;20025;-75
2021/10/28 04:34:08;;;;;;;23.55;11.20;;;8.40;99.90;;;;;;5033052;28;20045;-75
2021/10/28 04:36:35;;;;;;;18.48;10.70;;;8.40;99.90;;;;;;5015548;28;20022;-76
2021/10/28 04:39:03;;;;;;;16.33;11.82;;;8.40;99.90;;;;;;5032724;28;20036;-76
2021/10/28 04:41:29;;;;;;;16.25;11.52;;;8.30;99.90;;;;;;5032705;28;20021;-73
2021/10/28 04:43:55;;;;;;;18.00;10.73;;;8.30;99.90;;;;;;5033274;28;20032;-75
2021/10/28 04:46:21;;;;;;;15.07;11.10;;;8.30;99.90;;;;;;5032145;28;20021;-76
2021/10/28 04:48:46;;;;;;;19.50;11.88;;;8.30;99.90;;;;;;5033098;28;20025;-75
2021/10/28 04:51:13;;;;;;;21.50;11.23;;;9.10;99.90;;;;;;5032902;28;20036;-75
2021/10/28 04:53:39;;;;;;;17.20;11.15;;;8.30;99.90;;;;;;5032080;28;20466;-76
2021/10/28 04:56:05;;;;;;;17.15;11.00;;;8.30;99.90;;;;;;5032946;28;20052;-76
2021/10/28 04:58:30;;;;;;;19.88;10.93;;;8.30;99.90;;;;;;5032543;28;20021;-76
2021/10/28 05:00:56;;;;;;;17.85;11.45;;;8.20;99.90;;;;;;5032588;28;20025;-75
2021/10/28 05:03:22;;;;;;;17.67;11.55;;;8.20;99.90;;;;;;5032740;28;20052;-75
2021/10/28 05:05:48;;;;;;;12.75;10.68;;;8.20;99.90;;;;;;5032461;28;20095;-75
2021/10/28 05:08:15;;;;;;;18.08;11.35;;;8.20;99.90;;;;;;5032347;28;20026;-75
2021/10/28 05:10:41;;;;;;;14.80;10.60;;;8.20;99.90;;;;;;5032520;28;20112;-76
2021/10/28 05:13:12;;;;;;;12.38;10.07;;;8.20;99.90;;;;;;5032275;28;20466;-75
2021/10/28 05:15:49;;;;;;;19.98;10.57;;;8.20;99.90;;;;;;5031662;28;20052;-76
2021/10/28 05:18:17;;;;;;;16.75;10.30;;;8.20;99.90;;;;;;5028526;28;20033;-75
2021/10/28 05:20:43;;;;;;;14.27;10.27;;;8.20;99.90;;;;;;5025853;28;20057;-76
2021/10/28 05:23:10;;;;;;;15.85;10.45;;;8.20;99.90;;;;;;5030605;28;20029;-75
2021/10/28 05:25:36;;;;;;;13.77;10.00;;;8.20;99.90;;;;;;5030406;28;20187;-75
2021/10/28 05:28:01;;;;;;;14.65;8.95;;;8.20;99.90;;;;;;5030415;28;20072;-75
2021/10/28 05:30:28;;;;;;;17.13;9.73;;;8.50;99.90;;;;;;5030088;28;20128;-74
2021/10/28 05:32:55;;;;;;;14.73;10.05;;;8.20;99.90;;;;;;5029491;28;20053;-75
2021/10/28 05:35:21;;;;;;;15.27;9.68;;;8.20;99.90;;;;;;5029150;28;20029;-75
2021/10/28 05:37:47;;;;;;;13.40;9.95;;;8.10;99.90;;;;;;5030890;28;20488;-76
2021/10/28 05:40:13;;;;;;;17.80;10.90;;;8.10;99.90;;;;;;5030559;28;20029;-76
2021/10/28 05:42:43;;;;;;;17.00;11.40;;;8.10;99.90;;;;;;5029491;28;20493;-76
2021/10/28 05:45:09;;;;;;;15.87;10.67;;;8.10;99.90;;;;;;5028190;28;20041;-75
2021/10/28 05:47:35;;;;;;;15.48;9.88;;;8.10;99.90;;;;;;5031090;28;20021;-76
2021/10/28 05:50:01;;;;;;;22.17;10.30;;;8.10;99.90;;;;;;5030058;28;20052;-76
2021/10/28 05:52:27;;;;;;;19.33;10.40;;;8.10;99.90;;;;;;5030653;28;20021;-76
2021/10/28 05:54:53;;;;;;;15.15;9.98;;;8.10;99.90;;;;;;5030964;28;20390;-75
2021/10/28 05:57:20;;;;;;;13.65;9.73;;;8.10;99.90;;;;;;5030133;28;20018;-76
2021/10/28 05:59:46;;;;;;;18.13;11.10;;;8.10;99.90;;;;;;5031218;28;20028;-75
2021/10/28 06:02:11;;;;;;;14.90;9.60;;;8.10;99.90;;;;;;5030506;28;20014;-76
2021/10/28 06:04:37;;;;;;;13.00;10.45;;;8.10;99.90;;;;;;5030444;28;20026;-75
2021/10/28 06:07:03;;;;;;;14.43;9.68;;;8.10;99.90;;;;;;5030729;28;20063;-75
2021/10/28 06:09:28;;;;;;;14.88;10.23;;;8.10;99.90;;;;;;5030217;28;20026;-73
2021/10/28 06:11:56;;;;;;;15.23;10.50;;;8.10;99.90;;;;;;5031119;28;20037;-74
2021/10/28 06:14:24;;;;;;;13.73;10.05;;;8.10;99.90;;;;;;5030861;28;20049;-75
2021/10/28 06:16:59;;;;;;;17.73;10.45;;;8.10;99.90;;;;;;5030033;28;20055;-75
2021/10/28 06:19:25;;;;;;;14.07;10.05;;;8.10;99.90;;;;;;5033649;28;20025;-74
2021/10/28 06:21:50;;;;;;;15.15;10.02;;;8.10;99.90;;;;;;5034404;28;20020;-74
2021/10/28 06:24:16;;;;;;;14.27;9.38;;;8.10;99.90;;;;;;5034851;28;20039;-75
2021/10/28 06:26:42;;;;;;;21.63;9.93;;;8.10;99.90;;;;;;5034232;28;20041;-77
2021/10/28 06:29:07;;;;;;;14.00;10.18;;;8.00;99.90;;;;;;5031550;28;20075;-75
2021/10/28 06:31:33;;;;;;;13.93;9.18;;;8.10;99.90;;;;;;5031645;28;20024;-76
2021/10/28 06:34:01;;;;;;;12.27;9.68;;;8.10;99.90;;;;;;5032508;28;20136;-76
2021/10/28 06:36:27;;;;;;;15.98;11.05;;;8.10;99.90;;;;;;5034867;28;20022;-77
2021/10/28 06:38:53;;;;;;;13.43;10.02;;;8.10;99.90;;;;;;5034960;28;20026;-77
2021/10/28 06:41:21;;;;;;;12.70;9.30;;;8.10;99.90;;;;;;5034584;28;20341;-75
2021/10/28 06:43:46;;;;;;;17.85;9.90;;;8.10;99.90;;;;;;5033375;28;20033;-76
2021/10/28 06:46:12;;;;;;;14.15;10.00;;;8.10;99.90;;;;;;5034455;28;20076;-76
2021/10/28 06:48:37;;;;;;;16.70;10.30;;;8.10;99.90;;;;;;5034315;28;20031;-75
2021/10/28 06:51:03;;;;;;;12.43;9.73;;;8.10;99.90;;;;;;5034374;28;20144;-75
2021/10/28 06:53:42;;;;;;;15.98;10.15;;;8.10;99.90;;;;;;5033860;28;20034;-77
2021/10/28 07:04:19;;;;;;;16.67;10.05;;;8.20;99.90;;;;;;5033457;28;20032;-76
2021/10/28 07:06:46;;;;;;;14.70;10.48;;;8.30;99.90;;;;;;5034811;28;20025;-77
2021/10/28 07:09:20;;;;;;;15.13;10.95;;;8.30;99.90;;;;;;5036394;28;20373;-76
2021/10/28 07:12:04;;;;;;;17.35;10.90;;;8.30;99.90;;;;;;5036245;28;20444;-76
2021/10/28 07:14:31;;;;;;;21.30;10.77;;;8.40;99.90;;;;;;5029303;28;20125;-75
2021/10/28 07:17:12;;;;;;;17.30;11.68;;;8.40;99.90;;;;;;5032644;28;20044;-76
2021/10/28 07:27:49;;;;;;;22.42;12.07;;;8.60;99.90;;;;;;4952931;29;20123;-76
2021/10/28 07:30:39;;;;;;;23.27;11.80;;;8.60;99.90;;;;;;5024996;28;20478;-78
2021/10/28 07:33:14;;;;;;;15.32;11.95;;;8.60;99.90;;;;;;5035093;28;20567;-80
2021/10/28 08:04:40;;;;;;;23.20;13.15;;;9.20;99.90;;;;;;5027922;28;20022;-74
2021/10/28 08:06:24;;;;;;;22.85;14.18;;;9.40;99.90;;;;;;5027698;28;20029;-76
2021/10/28 08:21:59;;;;;;;20.92;14.05;;;9.60;99.90;;;;;;5022415;28;20501;-75
2021/10/28 08:29:40;;;;;;;21.08;14.52;;;9.80;99.90;;;;;;5026352;28;20084;-76
2021/10/28 08:32:06;;;;;;;22.83;14.90;;;9.90;99.90;;;;;;5023818;28;20041;-76
2021/10/28 08:34:37;;;;;;;21.50;14.70;;;9.90;99.90;;;;;;5020588;28;20033;-76
2021/10/28 08:37:14;;;;;;;22.60;15.02;;;10.00;99.90;;;;;;5023807;28;20167;-76
2021/10/28 08:39:51;;;;;;;25.20;14.93;;;10.80;99.90;;;;;;5025044;28;20117;-77
2021/10/28 08:42:21;;;;;;;23.77;15.65;;;10.10;99.90;;;;;;5025062;28;20029;-77
2021/10/28 08:44:49;;;;;;;22.13;15.30;;;10.20;99.90;;;;;;5026074;28;20018;-76
2021/10/28 08:47:16;;;;;;;26.15;14.43;;;10.20;99.90;;;;;;5026236;28;20392;-77
2021/10/28 08:49:51;;;;;;;22.60;15.23;;;10.30;99.90;;;;;;5028181;28;20025;-76
2021/10/28 09:25:59;;;;;;;20.55;14.27;;;11.20;99.90;;;;;;5024836;28;20092;-76
2021/10/28 09:28:36;;;;;;;20.50;14.15;;;11.70;99.90;;;;;;5023364;28;20041;-77
2021/10/28 09:31:16;;;;;;;31.13;16.92;;;11.30;99.90;;;;;;5024618;28;20029;-76
2021/10/28 09:34:02;;;;;;;24.00;14.02;;;11.40;99.90;;;;;;5025761;28;20045;-77
2021/10/28 09:43:35;;;;;;;20.38;13.27;;;11.50;99.90;;;;;;5019024;28;20056;-75
2021/10/28 09:45:29;;;;;;;21.80;13.07;;;11.70;99.90;;;;;;5026906;28;20072;-76
2021/10/28 09:50:35;;;;;;;21.88;13.13;;;11.80;99.90;;;;;;5021225;28;20465;-74
2021/10/28 09:53:59;;;;;;;18.65;12.82;;;11.90;99.90;;;;;;5025799;28;20026;-77
2021/10/28 09:58:42;;;;;;;19.02;12.80;;;12.10;99.90;;;;;;5024666;28;20036;-74
2021/10/28 10:01:28;;;;;;;18.85;12.88;;;12.10;99.90;;;;;;5024272;28;20030;-76
2021/10/28 10:03:58;;;;;;;20.90;12.93;;;12.20;99.90;;;;;;5024522;28;20025;-76
2021/10/28 10:06:26;;;;;;;17.38;13.93;;;12.30;99.90;;;;;;5026620;28;20030;-76
2021/10/28 10:08:53;;;;;;;20.10;13.35;;;12.30;99.90;;;;;;5018925;28;20076;-76
2021/10/28 10:11:24;;;;;;;23.77;13.18;;;12.40;99.90;;;;;;5030372;28;20409;-77
2021/10/28 10:13:50;;;;;;;17.52;12.68;;;12.40;99.90;;;;;;5023109;28;20094;-76
2021/10/28 10:16:15;;;;;;;16.77;12.45;;;12.50;99.90;;;;;;5026802;28;20030;-77
2021/10/28 10:18:47;;;;;;;19.58;12.73;;;12.50;99.90;;;;;;5019971;28;20026;-78
2021/10/28 10:24:28;;;;;;;17.42;12.88;;;12.70;99.90;;;;;;5020559;28;20049;-76
2021/10/28 11:02:52;;;;;;;16.50;12.63;;;12.70;99.90;;;;;;5023937;28;20028;-79
2021/10/28 11:15:32;;;;;;;17.55;12.27;;;13.70;99.90;;;;;;5033464;28;20034;-79
2021/10/28 11:30:23;;;;;;;20.85;12.07;;;14.10;99.90;;;;;;5035428;28;20048;-77
2021/10/28 12:14:15;;;;;;;12.48;9.40;;;14.70;99.90;;;;;;5034277;28;20457;-77
2021/10/28 12:44:27;;;;;;;8.30;6.68;;;15.60;99.90;;;;;;5026638;28;20080;-78
2021/10/28 13:37:46;;;;;;;6.93;6.22;;;16.30;99.90;;;;;;5034408;28;20083;-81
2021/10/28 13:58:04;;;;;;;9.30;7.05;;;16.50;99.90;;;;;;5021652;28;20513;-81
2021/10/28 14:27:43;;;;;;;10.20;5.10;;;16.70;99.90;;;;;;5036108;28;20044;-80
2021/10/28 14:32:59;;;;;;;9.38;4.70;;;16.70;99.90;;;;;;5034887;28;20046;-78
2021/10/28 14:36:11;;;;;;;5.70;4.47;;;16.70;99.90;;;;;;5030502;28;20040;-78
2021/10/28 14:38:28;;;;;;;10.82;4.30;;;16.70;99.90;;;;;;5031886;28;20032;-81
2021/10/28 15:30:13;;;;;;;8.80;4.00;;;16.00;99.90;;;;;;5036430;28;20080;-83
2021/10/28 15:35:18;;;;;;;3.95;3.58;;;15.80;99.90;;;;;;5035365;28;20037;-83
2021/10/28 15:40:50;;;;;;;4.38;3.97;;;15.50;99.90;;;;;;5031760;28;20662;-86
2021/10/28 15:43:44;;;;;;;5.35;4.57;;;15.40;99.90;;;;;;5039747;28;20028;-84
2021/10/28 16:00:07;;;;;;;7.65;5.28;;;14.50;99.90;;;;;;5033397;28;20035;-85
2021/10/28 16:24:14;;;;;;;6.38;5.88;;;13.60;99.90;;;;;;5033591;28;20034;-83
2021/10/28 16:26:40;;;;;;;10.88;5.43;;;13.50;99.90;;;;;;5028580;28;20028;-82
2021/10/28 16:29:09;;;;;;;6.85;5.22;;;13.40;99.90;;;;;;5024674;28;20034;-81
2021/10/28 16:31:35;;;;;;;8.88;5.90;;;13.30;99.90;;;;;;5026441;28;20033;-81
2021/10/28 16:34:01;;;;;;;9.45;5.97;;;13.30;99.90;;;;;;5026099;28;20132;-80
2021/10/28 16:36:27;;;;;;;7.68;5.10;;;13.10;99.90;;;;;;5027500;28;20191;-80
2021/10/28 16:38:53;;;;;;;6.07;5.30;;;13.10;99.90;;;;;;5027615;28;20111;-79
2021/10/28 16:41:19;;;;;;;5.47;4.97;;;13.00;99.90;;;;;;5029203;28;20022;-80
2021/10/28 16:43:45;;;;;;;6.47;5.15;;;13.00;99.90;;;;;;5027608;28;20056;-79
2021/10/28 16:46:13;;;;;;;6.05;5.43;;;12.90;99.90;;;;;;5030823;28;20049;-80
2021/10/28 16:48:41;;;;;;;9.90;6.40;;;12.80;99.90;;;;;;5029651;28;20040;-81
2021/10/28 16:51:06;;;;;;;8.00;5.68;;;12.80;99.90;;;;;;5025125;28;20064;-79
2021/10/28 16:53:33;;;;;;;6.47;5.85;;;12.70;99.90;;;;;;5019497;28;20048;-79
2021/10/28 16:55:59;;;;;;;10.57;5.47;;;12.60;99.90;;;;;;5019963;28;20034;-80
2021/10/28 16:58:25;;;;;;;7.43;5.78;;;12.60;99.90;;;;;;5025057;28;20025;-79
2021/10/28 17:00:51;;;;;;;6.55;5.65;;;12.50;99.90;;;;;;5028927;28;20492;-79
2021/10/28 17:03:17;;;;;;;7.22;6.25;;;12.50;99.90;;;;;;5026929;28;20025;-81
2021/10/28 17:05:44;;;;;;;8.30;5.88;;;12.50;99.90;;;;;;5029742;28;20036;-81
2021/10/28 17:08:10;;;;;;;7.53;6.57;;;12.50;99.90;;;;;;5031160;28;20041;-81
2021/10/28 17:10:36;;;;;;;11.63;6.82;;;12.40;99.90;;;;;;5028326;28;20152;-82
2021/10/28 17:13:01;;;;;;;15.75;7.75;;;12.40;99.90;;;;;;5031028;28;20033;-80
2021/10/28 17:15:27;;;;;;;7.85;7.00;;;12.40;99.90;;;;;;5030955;28;20473;-79
2021/10/28 17:17:52;;;;;;;9.20;6.53;;;12.30;99.90;;;;;;5031687;28;20018;-80
2021/10/28 17:20:19;;;;;;;7.80;6.47;;;12.30;99.90;;;;;;5030033;28;20025;-80
2021/10/28 17:22:45;;;;;;;6.93;6.20;;;12.30;99.90;;;;;;5033584;28;20503;-81
2021/10/28 17:25:17;;;;;;;6.32;5.72;;;12.20;99.90;;;;;;5031796;28;20041;-78
2021/10/28 17:27:45;;;;;;;6.30;5.22;;;12.30;99.90;;;;;;5030570;28;20026;-80
2021/10/28 17:30:12;;;;;;;6.50;5.90;;;12.20;99.90;;;;;;5033074;28;20030;-80
2021/10/28 17:32:40;;;;;;;8.85;5.55;;;12.20;99.90;;;;;;5031826;28;20034;-80
2021/10/28 17:35:06;;;;;;;9.02;5.97;;;12.10;99.90;;;;;;5031607;28;20057;-81
2021/10/28 17:37:32;;;;;;;6.78;6.00;;;12.10;99.90;;;;;;5027779;28;20061;-79
2021/10/28 17:39:58;;;;;;;14.05;6.63;;;12.10;99.90;;;;;;5032086;28;20470;-79
2021/10/28 17:42:23;;;;;;;9.35;6.22;;;12.00;99.90;;;;;;5028152;28;20028;-79
2021/10/28 17:44:52;;;;;;;10.25;6.20;;;12.00;99.90;;;;;;5020537;28;20393;-78
2021/10/28 17:47:18;;;;;;;15.18;7.03;;;12.00;99.90;;;;;;5028670;28;20509;-78
2021/10/28 17:49:44;;;;;;;7.50;6.65;;;12.00;99.90;;;;;;5020980;28;20091;-77
2021/10/28 17:52:10;;;;;;;10.15;6.72;;;12.00;99.90;;;;;;5024768;28;20026;-78
2021/10/28 17:54:36;;;;;;;9.93;6.65;;;11.90;99.90;;;;;;5022459;28;20127;-80
2021/10/28 17:57:03;;;;;;;11.43;7.20;;;11.90;99.90;;;;;;5021104;28;20030;-77
2021/10/28 17:59:28;;;;;;;8.88;6.25;;;11.90;99.90;;;;;;5023414;28;20038;-80
2021/10/28 18:01:54;;;;;;;13.23;6.93;;;11.90;99.90;;;;;;5025540;28;20491;-80
2021/10/28 18:04:21;;;;;;;10.25;6.43;;;11.90;99.90;;;;;;5022186;28;20497;-79
2021/10/28 18:06:49;;;;;;;6.47;5.88;;;11.90;99.90;;;;;;5025925;28;20485;-79
2021/10/28 18:09:15;;;;;;;8.40;6.45;;;11.90;99.90;;;;;;5022229;28;20037;-79
2021/10/28 18:11:40;;;;;;;8.50;6.10;;;11.90;99.90;;;;;;5018892;28;20084;-79
2021/10/28 18:14:12;;;;;;;9.30;6.55;;;11.80;99.90;;;;;;5021712;28;20056;-79
2021/10/28 18:16:37;;;;;;;8.90;7.28;;;11.80;99.90;;;;;;5029109;28;20050;-80
2021/10/28 18:19:04;;;;;;;8.63;6.13;;;11.80;99.90;;;;;;5028459;28;20418;-80
2021/10/28 18:21:30;;;;;;;11.15;7.15;;;11.80;99.90;;;;;;5026321;28;20033;-81
2021/10/28 18:23:57;;;;;;;9.50;6.60;;;11.80;99.90;;;;;;5023922;28;20087;-79
2021/10/28 18:26:24;;;;;;;6.57;5.85;;;11.80;99.90;;;;;;5030776;28;20025;-77
2021/10/28 18:28:50;;;;;;;6.93;6.22;;;11.80;99.90;;;;;;5027249;28;20026;-79
2021/10/28 18:31:17;;;;;;;7.38;6.18;;;11.80;99.90;;;;;;5027699;28;20057;-79
2021/10/28 18:33:45;;;;;;;6.95;6.25;;;11.80;99.90;;;;;;5027446;28;20262;-79
2021/10/28 18:36:12;;;;;;;7.15;6.00;;;11.80;99.90;;;;;;5027601;28;20528;-80
2021/10/28 18:38:44;;;;;;;9.07;6.40;;;11.80;99.90;;;;;;5029214;28;20517;-80
2021/10/28 18:41:10;;;;;;;8.73;6.53;;;11.80;99.90;;;;;;5025127;28;20029;-78
2021/10/28 18:43:36;;;;;;;6.82;6.15;;;11.80;99.90;;;;;;5025551;28;20444;-79
2021/10/28 18:46:01;;;;;;;6.90;6.20;;;11.70;99.90;;;;;;5029212;28;20845;-79
2021/10/28 18:48:27;;;;;;;6.97;6.28;;;11.80;99.90;;;;;;5032949;28;20483;-79
2021/10/28 18:50:54;;;;;;;7.85;7.05;;;11.70;99.90;;;;;;5028017;28;20059;-81
2021/10/28 18:53:20;;;;;;;7.53;6.55;;;11.70;99.90;;;;;;5024973;28;20147;-78
2021/10/28 18:55:46;;;;;;;9.52;6.53;;;11.70;99.90;;;;;;5026169;28;20412;-79
2021/10/28 18:58:12;;;;;;;10.63;6.55;;;11.70;99.90;;;;;;5032220;28;20052;-78
2021/10/28 19:00:38;;;;;;;7.45;6.32;;;11.70;99.90;;;;;;5033210;28;20033;-80
2021/10/28 19:03:03;;;;;;;10.23;7.15;;;11.60;99.90;;;;;;5027931;28;20773;-74
2021/10/28 19:05:31;;;;;;;8.00;6.32;;;11.70;99.90;;;;;;5026180;28;20033;-78
2021/10/28 19:07:57;;;;;;;7.38;6.68;;;11.60;99.90;;;;;;5032151;28;20041;-78
2021/10/28 19:10:23;;;;;;;6.65;5.85;;;11.60;99.90;;;;;;5031686;28;20033;-78
2021/10/28 19:12:49;;;;;;;6.88;5.97;;;11.60;99.90;;;;;;5029800;28;20032;-77
2021/10/28 19:15:16;;;;;;;9.70;6.40;;;11.60;99.90;;;;;;5034596;28;20061;-77
2021/10/28 19:17:45;;;;;;;13.75;7.03;;;11.50;99.90;;;;;;5033743;28;20052;-77
2021/10/28 19:20:11;;;;;;;12.15;6.57;;;11.50;99.90;;;;;;5034988;28;20025;-79
2021/10/28 19:22:37;;;;;;;7.88;5.90;;;11.50;99.90;;;;;;5034661;28;20071;-79
2021/10/28 19:25:05;;;;;;;6.85;6.30;;;11.50;99.90;;;;;;5033617;28;20405;-78
2021/10/28 19:27:31;;;;;;;8.68;6.28;;;11.40;99.90;;;;;;5032924;28;20067;-78
2021/10/28 19:30:02;;;;;;;6.75;6.10;;;11.40;99.90;;;;;;5034315;28;20034;-78
2021/10/28 19:32:29;;;;;;;9.00;6.78;;;11.40;99.90;;;;;;5033591;28;20037;-76
2021/10/28 19:34:55;;;;;;;7.65;6.57;;;11.40;99.90;;;;;;5033940;28;20060;-77
2021/10/28 19:37:31;;;;;;;9.45;6.82;;;11.30;99.90;;;;;;5029987;28;20042;-77
2021/10/28 19:40:27;;;;;;;9.05;6.32;;;11.30;99.90;;;;;;5032331;28;20486;-78
2021/10/28 19:48:16;;;;;;;7.25;6.55;;;11.20;99.90;;;;;;5033510;28;20031;-78
2021/10/28 19:50:45;;;;;;;6.82;6.22;;;11.20;99.90;;;;;;5033209;28;20037;-78
2021/10/28 19:53:11;;;;;;;7.18;6.43;;;11.20;99.90;;;;;;5032949;28;20017;-77
2021/10/28 19:55:39;;;;;;;6.47;5.97;;;11.10;99.90;;;;;;5033756;28;20091;-77
2021/10/28 19:58:09;;;;;;;8.18;6.63;;;11.10;99.90;;;;;;5033481;28;20033;-78
2021/10/28 20:21:06;;;;;;;9.55;6.72;;;11.00;99.90;;;;;;5031702;28;20600;-78
2021/10/28 20:23:31;;;;;;;8.38;7.45;;;10.90;99.90;;;;;;5032825;28;20026;-79
2021/10/28 20:25:58;;;;;;;11.13;7.25;;;11.00;99.90;;;;;;5033683;28;20055;-79
2021/10/28 20:28:23;;;;;;;13.52;7.00;;;10.90;99.90;;;;;;5031892;28;20144;-77
2021/10/28 20:30:56;;;;;;;9.73;7.18;;;11.00;99.90;;;;;;5032774;28;20025;-79
2021/10/28 20:33:28;;;;;;;8.10;7.07;;;10.90;99.90;;;;;;5031623;28;20041;-78
2021/10/28 20:37:05;;;;;;;8.27;6.70;;;10.90;99.90;;;;;;5031487;28;20041;-79
2021/10/28 20:39:04;;;;;;;11.48;7.00;;;10.90;99.90;;;;;;5029526;28;20052;-78
2021/10/28 20:41:30;;;;;;;10.23;7.20;;;10.90;99.90;;;;;;5041948;28;20099;-78
2021/10/28 20:43:57;;;;;;;7.78;7.07;;;10.90;99.90;;;;;;5034207;28;20466;-78
2021/10/28 20:46:26;;;;;;;9.57;8.10;;;10.80;99.90;;;;;;5031851;28;20033;-78
2021/10/28 20:48:54;;;;;;;14.00;6.88;;;10.90;99.90;;;;;;5033206;28;20017;-79
2021/10/28 20:51:21;;;;;;;10.43;7.22;;;10.90;99.90;;;;;;5033136;28;20486;-78
2021/10/28 20:53:48;;;;;;;7.40;6.55;;;10.90;99.90;;;;;;5034725;28;20489;-79
2021/10/28 20:56:14;;;;;;;7.85;6.78;;;10.90;99.90;;;;;;5033652;28;20032;-78
2021/10/28 20:58:42;;;;;;;10.32;6.90;;;10.80;99.90;;;;;;5033065;28;20025;-76
2021/10/28 21:01:08;;;;;;;13.85;7.25;;;10.80;99.90;;;;;;5032626;28;20022;-80
2021/10/28 21:03:34;;;;;;;9.27;7.55;;;10.80;99.90;;;;;;5032578;28;20018;-78
2021/10/28 21:06:01;;;;;;;8.30;6.78;;;10.80;99.90;;;;;;5033176;28;20021;-78
2021/10/28 21:08:27;;;;;;;13.77;6.93;;;10.80;99.90;;;;;;5032734;28;20095;-79
2021/10/28 21:10:54;;;;;;;8.95;6.93;;;10.80;99.90;;;;;;5032400;28;20474;-78
2021/10/28 21:13:20;;;;;;;7.65;6.85;;;10.70;99.90;;;;;;5032448;28;20025;-79
2021/10/28 21:15:46;;;;;;;12.02;6.65;;;10.70;99.90;;;;;;5033164;28;20363;-77
2021/10/28 21:18:12;;;;;;;9.88;7.13;;;10.60;99.90;;;;;;5031766;28;20060;-79
2021/10/28 21:20:38;;;;;;;9.00;7.07;;;10.60;99.90;;;;;;5032390;28;20052;-77